METAR Data
IDs: Format: Raw Decoded Include TAF

Data at: 0212 UTC 29 May 2022

Region: TOP
KATL 290152Z 33006KT 10SM FEW050 SCT250 24/14 A2994 RMK AO2 SLP130 T02390144

KBOS 290154Z 30006KT 10SM BKN070 BKN085 OVC100 20/17 A2980 RMK AO2 SLP091 T02000167

KBWI 290154Z 25004KT 10SM FEW090 21/15 A2991 RMK AO2 SLP126 T02060150

KCLE 290151Z 12005KT 10SM BKN250 18/09 A2993 RMK AO2 SLP148 T01780089

KCLT 290152Z 36005KT 10SM FEW065 21/14 A2995 RMK SLP136 T02110144

KCVG 290152Z 18005KT 10SM SCT250 18/16 A2993 RMK AO2 SLP130 T01780156 $

KDCA 290152Z 29005KT 10SM CLR 22/14 A2992 RMK AO2 SLP132 T02220139

KDEN 290153Z 33011KT 10SM FEW110 BKN150 BKN220 24/M04 A2962 RMK AO2 WSHFT 0139 SLP952 T02391039

KDFW 290153Z 17013KT 10SM SCT250 31/17 A2970 RMK AO2 PK WND 16029/0056 SLP047 T03060167

KDTW 290153Z 17005KT 10SM BKN180 BKN250 18/13 A2991 RMK AO2 SLP126 T01830133

KEWR 290151Z 29007KT 10SM FEW075 22/16 A2986 RMK AO2 SLP112 T02220156

KFLL 290153Z 00000KT 10SM FEW030 BKN120 24/22 A2995 RMK AO2 LTG DSNT NE SLP141 T02440222 $

KIAD 290152Z 28004KT 10SM BKN080 22/15 A2993 RMK AO2 SLP132 T02170150

KIAH 290153Z 14012KT 10SM CLR 28/22 A2980 RMK AO2 SLP090 T02780222

KJFK 290151Z 30009KT 10SM SCT037 BKN060 22/16 A2986 RMK AO2 RAB14E27 SLP111 P0000 T02170161

KLAS 290156Z 22014G28KT 10SM FEW140 SCT180 BKN250 32/03 A2952 RMK AO2 PK WND 22028/0153 SLP968 T03170028

KLAX 290153Z 27011KT 10SM SCT014 BKN038 18/13 A2987 RMK AO2 SLP113 T01780128

KLGA 290151Z 30006KT 10SM FEW035 SCT060 SCT120 21/16 A2985 RMK AO2 RAE0059 SLP108 P0000 T02060161 $

KMCO 290153Z 10006KT 10SM BKN039 BKN070 27/21 A2994 RMK AO2 SLP135 T02670211

KMDW 290153Z 16007KT 10SM FEW050 FEW150 SCT250 22/12 A2982 RMK AO2 SLP090 T02220117 $

KMEM 290154Z 16005KT 10SM SCT150 23/14 A2987 RMK AO2 SLP111 T02280144 $

KMIA 290153Z 17004KT 10SM FEW047 SCT110 BKN250 23/20 A2995 RMK AO2 RAE05 TSE03 SLP142 P0007 T02330200 $

KMSP 290153Z 12009KT 10SM FEW160 SCT250 27/15 A2949 RMK AO2 SLP983 VIRGA DSNT W T02720150

KORD 290151Z 18007KT 10SM FEW050 SCT110 SCT250 21/12 A2981 RMK AO2 SLP091 T02110117

KPDX 290153Z 19011G24KT 10SM SCT031 BKN050 BKN060 14/09 A2964 RMK AO2 RAE46 SLP035 P0000 T01440089 $

KPHL 290154Z 00000KT 10SM BKN055 BKN070 BKN100 22/18 A2989 RMK AO2 RAB25E40 SLP121 P0000 T02220183

KPHX 290151Z 25014G23KT 10SM SCT250 BKN290 36/M07 A2955 RMK AO2 SLP986 T03611072

KPIT 290151Z 31003KT 10SM FEW060 FEW250 16/12 A2998 RMK AO2 SLP156 T01610117 $

KSAN 290151Z 25008KT 10SM BKN022 BKN033 17/12 A2990 RMK AO2 SLP126 T01670117

KSEA 290153Z 35013KT 9SM -RA FEW020 BKN055 OVC070 11/08 A2970 RMK AO2 SLP064 P0005 T01060083

KSFO 290156Z 25012G19KT 10SM FEW006 BKN015 BKN060 17/12 A2995 RMK AO2 PK WND 25027/0057 SLP141 T01720122

KSLC 290154Z 00000KT 10SM FEW065 FEW150 21/06 A2969 RMK AO2 SLP010 T02060061

KSTL 290151Z 16013G21KT 10SM FEW140 BKN250 23/14 A2983 RMK AO2 SLP091 T02330139

KTPA 290153Z 29003KT 10SM CLR 27/17 A2994 RMK AO2 SLP137 T02720167